createdAt,value
2022-12-01T00:00:28.984Z,59.20
2022-12-01T00:01:28.999Z,60.10
2022-12-01T00:02:29.036Z,61.20
2022-12-01T00:03:29.030Z,59.80
2022-12-01T00:04:28.929Z,63.50
2022-12-01T00:05:28.919Z,61.50
2022-12-01T00:06:28.920Z,63.00
2022-12-01T00:07:28.940Z,63.60
2022-12-01T00:08:28.889Z,60.50
2022-12-01T00:09:28.876Z,58.90
2022-12-01T00:10:28.858Z,64.70
2022-12-01T00:11:28.861Z,66.50
2022-12-01T00:12:28.821Z,64.80
2022-12-01T00:13:28.810Z,61.20
2022-12-01T00:14:28.804Z,66.90
2022-12-01T00:15:28.789Z,62.20
2022-12-01T00:16:28.844Z,60.90
2022-12-01T00:17:28.760Z,59.60
2022-12-01T00:18:28.746Z,65.50
2022-12-01T00:19:28.729Z,65.90
2022-12-01T00:20:28.726Z,62.30
2022-12-01T00:21:28.722Z,60.40
2022-12-01T00:22:28.691Z,62.80
2022-12-01T00:23:28.680Z,68.30
2022-12-01T00:24:28.661Z,63.10
2022-12-01T00:25:28.651Z,60.70
2022-12-01T00:26:28.662Z,59.50
2022-12-01T00:27:28.630Z,57.40
2022-12-01T00:28:28.612Z,58.10
2022-12-01T00:29:28.611Z,62.10
2022-12-01T00:30:28.581Z,63.60
2022-12-01T00:31:28.635Z,63.00
2022-12-01T00:32:28.552Z,60.80
2022-12-01T00:33:28.541Z,61.50
2022-12-01T00:34:28.535Z,61.60
2022-12-01T00:35:28.523Z,61.20
2022-12-01T00:36:28.534Z,64.00
2022-12-01T00:37:28.492Z,61.00
2022-12-01T00:38:28.471Z,59.90
2022-12-01T00:39:28.469Z,62.70
2022-12-01T00:40:28.443Z,66.80
2022-12-01T00:41:28.481Z,67.00
2022-12-01T00:42:28.421Z,67.30
2022-12-01T00:43:28.423Z,64.20
2022-12-01T00:44:28.400Z,69.10
2022-12-01T00:45:28.382Z,69.00
2022-12-01T00:46:28.490Z,75.60
2022-12-01T00:47:28.374Z,76.00
2022-12-01T00:48:28.340Z,75.70
2022-12-01T00:49:28.334Z,78.00
2022-12-01T00:50:28.314Z,78.70
2022-12-01T00:51:28.333Z,80.20
2022-12-01T00:52:28.283Z,76.00
2022-12-01T00:53:28.275Z,73.90
2022-12-01T00:54:28.263Z,80.90
2022-12-01T00:55:28.254Z,84.00
2022-12-01T00:56:28.262Z,80.10
2022-12-01T00:57:28.215Z,84.20
2022-12-01T00:58:28.212Z,84.80
2022-12-01T00:59:28.196Z,82.60
2022-12-01T01:00:28.194Z,83.80
2022-12-01T01:01:28.214Z,79.60
2022-12-01T01:02:28.188Z,77.50
2022-12-01T01:03:28.134Z,85.80
2022-12-01T01:04:28.125Z,84.00
2022-12-01T01:05:28.113Z,85.20
2022-12-01T01:06:28.122Z,77.10
2022-12-01T01:07:28.141Z,82.50
2022-12-01T01:08:28.078Z,82.90
2022-12-01T01:09:28.054Z,82.10
2022-12-01T01:10:28.053Z,84.20
2022-12-01T01:11:28.063Z,88.60
2022-12-01T01:12:28.014Z,91.00
2022-12-01T01:13:27.994Z,82.20
2022-12-01T01:14:27.997Z,88.70
2022-12-01T01:15:27.975Z,87.50
2022-12-01T01:16:28.024Z,88.30
2022-12-01T01:17:27.977Z,94.30
2022-12-01T01:18:27.953Z,96.70
2022-12-01T01:19:27.923Z,98.30
2022-12-01T01:20:27.924Z,100.60
2022-12-01T01:21:27.895Z,99.90
2022-12-01T01:22:27.905Z,92.30
2022-12-01T01:23:27.865Z,96.40
2022-12-01T01:24:27.861Z,103.00
2022-12-01T01:25:27.844Z,95.40
2022-12-01T01:26:27.824Z,98.60
2022-12-01T01:27:27.838Z,96.90
2022-12-01T01:28:27.806Z,99.30
2022-12-01T01:29:27.785Z,98.20
2022-12-01T01:30:27.821Z,94.40
2022-12-01T01:31:27.777Z,98.30
2022-12-01T01:32:27.766Z,93.60
2022-12-01T01:33:27.725Z,96.30
2022-12-01T01:34:27.725Z,98.30
2022-12-01T01:35:27.706Z,101.90
2022-12-01T01:36:27.695Z,90.70
2022-12-01T01:37:27.696Z,96.40
2022-12-01T01:38:27.676Z,90.30
2022-12-01T01:39:27.655Z,99.70
2022-12-01T01:40:27.645Z,97.90
2022-12-01T01:41:27.627Z,98.20
2022-12-01T01:42:27.625Z,97.80
2022-12-01T01:43:27.606Z,96.90
2022-12-01T01:44:27.586Z,114.90
2022-12-01T01:45:27.567Z,109.70
2022-12-01T01:46:27.639Z,105.20
2022-12-01T01:47:27.566Z,109.40
2022-12-01T01:48:27.538Z,104.00
2022-12-01T01:49:27.517Z,107.60
2022-12-01T01:50:27.506Z,112.90
2022-12-01T01:51:27.487Z,112.40
2022-12-01T01:52:27.504Z,119.50
2022-12-01T01:53:27.467Z,117.60
2022-12-01T01:54:27.457Z,117.90
2022-12-01T01:55:27.436Z,123.20
2022-12-01T01:56:27.426Z,117.20
2022-12-01T01:57:27.446Z,127.40
2022-12-01T01:58:27.402Z,130.70
2022-12-01T01:59:27.378Z,133.90
2022-12-01T02:00:27.369Z,141.70
2022-12-01T02:01:27.453Z,127.50
2022-12-01T02:02:27.469Z,136.80
2022-12-01T02:03:27.340Z,135.60
2022-12-01T02:04:27.335Z,146.80
2022-12-01T02:05:27.334Z,139.20
2022-12-01T02:06:27.301Z,148.00
2022-12-01T02:07:27.329Z,139.20
2022-12-01T02:08:27.269Z,144.90
2022-12-01T02:09:27.255Z,142.90
2022-12-01T02:10:27.238Z,143.20
2022-12-01T02:11:27.218Z,146.20
2022-12-01T02:12:27.228Z,141.90
2022-12-01T02:13:27.204Z,141.20
2022-12-01T02:14:27.179Z,135.00
2022-12-01T02:15:27.169Z,133.90
2022-12-01T02:16:27.218Z,134.10
2022-12-01T02:17:27.160Z,139.70
2022-12-01T02:18:27.146Z,129.80
2022-12-01T02:19:27.129Z,147.80
2022-12-01T02:20:27.098Z,127.60
2022-12-01T02:21:27.091Z,144.60
2022-12-01T02:22:27.089Z,136.00
2022-12-01T02:23:27.062Z,133.30
2022-12-01T02:24:27.048Z,128.50
2022-12-01T02:25:27.052Z,131.10
2022-12-01T02:26:27.018Z,132.60
2022-12-01T02:27:27.022Z,137.40
2022-12-01T02:28:27.018Z,135.10
2022-12-01T02:29:26.976Z,126.00
2022-12-01T02:30:27.055Z,136.60
2022-12-01T02:31:26.960Z,134.30
2022-12-01T02:32:26.968Z,136.00
2022-12-01T02:33:26.930Z,137.20
2022-12-01T02:34:26.919Z,130.20
2022-12-01T02:35:26.898Z,143.10
2022-12-01T02:36:26.900Z,153.40
2022-12-01T02:37:26.897Z,138.80
2022-12-01T02:38:26.877Z,142.90
2022-12-01T02:39:26.841Z,136.90
2022-12-01T02:40:26.844Z,146.30
2022-12-01T02:41:26.818Z,151.50
2022-12-01T02:42:26.811Z,141.30
2022-12-01T02:43:26.811Z,143.00
2022-12-01T02:44:26.801Z,140.80
2022-12-01T02:45:26.768Z,138.30
2022-12-01T02:46:26.790Z,143.50
2022-12-01T02:47:26.744Z,141.30
2022-12-01T02:48:26.750Z,142.40
2022-12-01T02:49:26.712Z,152.50
2022-12-01T02:50:26.700Z,149.40
2022-12-01T02:51:26.683Z,151.90
2022-12-01T02:52:26.680Z,148.50
2022-12-01T02:53:26.681Z,152.40
2022-12-01T02:54:26.651Z,156.40
2022-12-01T02:55:26.631Z,143.90
2022-12-01T02:56:26.621Z,145.70
2022-12-01T02:57:26.635Z,151.20
2022-12-01T02:58:26.610Z,148.00
2022-12-01T02:59:26.581Z,148.10
2022-12-01T03:00:26.561Z,151.90
2022-12-01T03:01:26.574Z,147.50
2022-12-01T03:02:26.586Z,153.90
2022-12-01T03:03:26.541Z,149.90
2022-12-01T03:04:26.512Z,150.90
2022-12-01T03:05:26.493Z,154.80
2022-12-01T03:06:26.481Z,149.90
2022-12-01T03:07:26.500Z,144.30
2022-12-01T03:08:26.482Z,150.90
2022-12-01T03:09:26.440Z,143.20
2022-12-01T03:10:26.431Z,148.80
2022-12-01T03:11:26.411Z,146.30
2022-12-01T03:12:26.408Z,151.70
2022-12-01T03:13:26.402Z,154.30
2022-12-01T03:14:26.391Z,148.10
2022-12-01T03:15:26.388Z,157.60
2022-12-01T03:16:26.495Z,150.10
2022-12-01T03:17:26.332Z,155.90
2022-12-01T03:18:26.352Z,147.40
2022-12-01T03:19:26.322Z,148.70
2022-12-01T03:20:26.303Z,156.80
2022-12-01T03:21:26.283Z,149.20
2022-12-01T03:22:26.273Z,149.90
2022-12-01T03:23:26.265Z,153.00
2022-12-01T03:24:26.255Z,150.40
2022-12-01T03:25:26.229Z,159.40
2022-12-01T03:26:26.222Z,164.50
2022-12-01T03:27:26.202Z,171.70
2022-12-01T03:28:26.212Z,165.80
2022-12-01T03:29:26.184Z,155.60
2022-12-01T03:30:26.163Z,157.90
2022-12-01T03:31:26.242Z,168.00
2022-12-01T03:32:26.145Z,159.80
2022-12-01T03:33:26.142Z,152.80
2022-12-01T03:34:26.113Z,157.50
2022-12-01T03:35:26.132Z,146.00
2022-12-01T03:36:26.153Z,141.90
2022-12-01T03:37:26.072Z,149.60
2022-12-01T03:38:26.075Z,147.70
2022-12-01T03:39:26.053Z,136.00
2022-12-01T03:40:26.033Z,137.40
2022-12-01T03:41:26.015Z,132.30
2022-12-01T03:42:26.004Z,138.10
2022-12-01T03:43:26.007Z,140.70
2022-12-01T03:44:25.974Z,136.00
2022-12-01T03:45:25.953Z,148.40
2022-12-01T03:46:25.997Z,139.40
2022-12-01T03:47:25.937Z,141.00
2022-12-01T03:48:25.934Z,139.00
2022-12-01T03:49:25.904Z,146.50
2022-12-01T03:50:25.903Z,131.70
2022-12-01T03:51:25.874Z,131.60
2022-12-01T03:52:25.866Z,137.20
2022-12-01T03:53:25.882Z,174.70
2022-12-01T03:54:25.844Z,391.30
2022-12-01T03:55:25.834Z,181.60
2022-12-01T03:56:25.814Z,248.70
2022-12-01T03:57:25.795Z,151.20
2022-12-01T03:58:25.805Z,162.00
2022-12-01T03:59:25.765Z,172.10
2022-12-01T04:00:25.775Z,137.90
2022-12-01T04:01:25.768Z,130.90
2022-12-01T04:02:25.771Z,118.70
2022-12-01T04:03:25.734Z,130.10
2022-12-01T04:04:25.707Z,122.60
2022-12-01T04:05:25.782Z,112.40
2022-12-01T04:06:25.686Z,114.80
2022-12-01T04:07:25.696Z,116.60
2022-12-01T04:08:25.665Z,108.10
2022-12-01T04:09:25.664Z,102.60
2022-12-01T04:10:25.628Z,99.90
2022-12-01T04:11:30.979Z,96.80
2022-12-01T04:12:26.595Z,104.60
2022-12-01T04:13:25.625Z,97.40
2022-12-01T04:14:25.573Z,94.60
2022-12-01T04:15:25.564Z,93.80
2022-12-01T04:16:25.642Z,90.00
2022-12-01T04:17:25.534Z,84.20
2022-12-01T04:18:25.547Z,85.20
2022-12-01T04:19:25.506Z,86.10
2022-12-01T04:20:25.485Z,85.20
2022-12-01T04:21:25.478Z,92.90
2022-12-01T04:22:25.466Z,97.80
2022-12-01T04:23:25.467Z,81.50
2022-12-01T04:24:25.448Z,80.90
2022-12-01T04:25:25.427Z,80.00
2022-12-01T04:26:25.416Z,72.00
2022-12-01T04:27:25.407Z,78.40
2022-12-01T04:28:25.397Z,73.00
2022-12-01T04:29:25.377Z,72.40
2022-12-01T04:30:25.357Z,76.20
2022-12-01T04:31:25.413Z,78.90
2022-12-01T04:32:25.329Z,78.10
2022-12-01T04:33:25.342Z,78.90
2022-12-01T04:34:25.309Z,82.40
2022-12-01T04:35:25.288Z,78.60
2022-12-01T04:36:25.277Z,79.50
2022-12-01T04:37:25.268Z,85.60
2022-12-01T04:38:30.222Z,88.90
2022-12-01T04:39:26.249Z,89.20
2022-12-01T04:40:25.228Z,85.90
2022-12-01T04:41:25.208Z,86.50
2022-12-01T04:42:25.198Z,88.40
2022-12-01T04:43:25.206Z,80.40
2022-12-01T04:44:28.881Z,86.60
2022-12-01T04:45:26.177Z,78.80
2022-12-01T04:46:25.233Z,80.60
2022-12-01T04:47:25.127Z,87.00
2022-12-01T04:48:25.118Z,164.70
2022-12-01T04:49:25.138Z,88.20
2022-12-01T04:50:25.089Z,78.20
2022-12-01T04:51:25.093Z,76.80
2022-12-01T04:52:25.067Z,72.50
2022-12-01T04:53:25.038Z,75.30
2022-12-01T04:54:25.050Z,68.40
2022-12-01T04:55:25.009Z,68.90
2022-12-01T04:56:25.020Z,67.00
2022-12-01T04:57:24.988Z,63.10
2022-12-01T04:58:24.979Z,61.30
2022-12-01T04:59:24.979Z,60.00
2022-12-01T05:00:25.001Z,62.70
2022-12-01T05:01:25.012Z,56.00
2022-12-01T05:02:25.030Z,56.50
2022-12-01T05:03:24.909Z,55.20
2022-12-01T05:04:24.919Z,53.70
2022-12-01T05:05:24.893Z,51.90
2022-12-01T05:06:24.889Z,53.60
2022-12-01T05:07:24.891Z,261.60
2022-12-01T05:08:24.848Z,187.10
2022-12-01T05:09:24.850Z,66.70
2022-12-01T05:10:24.820Z,59.60
2022-12-01T05:11:24.810Z,62.90
2022-12-01T05:12:24.791Z,53.70
2022-12-01T05:13:24.788Z,58.30
2022-12-01T05:14:24.791Z,59.10
2022-12-01T05:15:24.750Z,54.60
2022-12-01T05:16:24.814Z,60.20
2022-12-01T05:17:24.722Z,54.30
2022-12-01T05:18:24.743Z,60.90
2022-12-01T05:19:24.722Z,61.30
2022-12-01T05:20:24.680Z,61.90
2022-12-01T05:21:24.671Z,63.90
2022-12-01T05:22:56.775Z,62.30
2022-12-01T05:23:25.655Z,67.00
2022-12-01T05:24:24.640Z,63.20
2022-12-01T05:25:24.621Z,63.00
2022-12-01T05:26:24.601Z,74.40
2022-12-01T05:27:24.599Z,71.90
2022-12-01T05:28:24.571Z,69.40
2022-12-01T05:29:24.571Z,165.70
2022-12-01T05:30:28.582Z,132.70
2022-12-01T05:31:24.571Z,98.40
2022-12-01T05:32:24.552Z,69.40
2022-12-01T05:33:24.514Z,73.00
2022-12-01T05:34:24.509Z,72.70
2022-12-01T05:35:24.483Z,70.50
2022-12-01T05:36:24.472Z,75.60
2022-12-01T05:37:24.462Z,78.30
2022-12-01T05:38:24.441Z,72.20
2022-12-01T05:39:24.442Z,76.10
2022-12-01T05:40:24.411Z,76.40
2022-12-01T05:41:24.402Z,80.50
2022-12-01T05:42:24.382Z,78.30
2022-12-01T05:43:28.964Z,74.40
2022-12-01T05:44:25.371Z,72.70
2022-12-01T05:45:24.419Z,83.10
2022-12-01T05:46:24.411Z,81.60
2022-12-01T05:47:24.325Z,80.80
2022-12-01T05:48:24.292Z,80.50
2022-12-01T05:49:24.313Z,86.10
2022-12-01T05:50:24.282Z,90.30
2022-12-01T05:51:24.269Z,87.90
2022-12-01T05:52:24.253Z,85.70
2022-12-01T05:53:24.242Z,88.00
2022-12-01T05:54:24.239Z,82.90
2022-12-01T05:55:24.221Z,97.90
2022-12-01T05:56:24.192Z,102.60
2022-12-01T05:57:24.203Z,103.30
2022-12-01T05:58:24.163Z,113.90
2022-12-01T05:59:24.189Z,243.30
2022-12-01T06:00:24.153Z,117.80
2022-12-01T06:01:24.135Z,106.10
2022-12-01T06:02:24.181Z,116.20
2022-12-01T06:03:24.106Z,113.90
2022-12-01T06:04:24.149Z,118.60
2022-12-01T06:05:24.073Z,115.10
2022-12-01T06:06:24.066Z,125.80
2022-12-01T06:07:24.091Z,131.10
2022-12-01T06:08:24.034Z,116.30
2022-12-01T06:09:24.044Z,121.60
2022-12-01T06:10:24.014Z,116.70
2022-12-01T06:11:24.003Z,117.30
2022-12-01T06:12:23.981Z,123.00
2022-12-01T06:13:23.972Z,120.60
2022-12-01T06:14:23.974Z,118.30
2022-12-01T06:15:23.950Z,116.10
2022-12-01T06:16:23.938Z,126.70
2022-12-01T06:17:23.913Z,120.00
2022-12-01T06:18:23.906Z,124.70
2022-12-01T06:19:23.914Z,116.40
2022-12-01T06:20:23.876Z,120.60
2022-12-01T06:21:23.864Z,123.00
2022-12-01T06:22:23.844Z,120.50
2022-12-01T06:23:28.925Z,133.80
2022-12-01T06:24:24.841Z,136.10
2022-12-01T06:25:23.816Z,137.80
2022-12-01T06:26:23.795Z,135.10
2022-12-01T06:27:23.793Z,136.90
2022-12-01T06:28:23.766Z,132.00
2022-12-01T06:29:23.767Z,136.20
2022-12-01T06:30:23.738Z,134.00
2022-12-01T06:31:23.801Z,132.10
2022-12-01T06:32:23.722Z,135.10
2022-12-01T06:33:23.706Z,131.10
2022-12-01T06:34:23.695Z,142.30
2022-12-01T06:35:23.678Z,148.80
2022-12-01T06:36:23.655Z,138.50
2022-12-01T06:37:23.645Z,138.60
2022-12-01T06:38:23.634Z,142.40
2022-12-01T06:39:23.636Z,143.10
2022-12-01T06:40:23.606Z,142.70
2022-12-01T06:41:23.598Z,148.00
2022-12-01T06:42:23.590Z,138.40
2022-12-01T06:43:23.576Z,135.10
2022-12-01T06:44:23.580Z,146.30
2022-12-01T06:45:23.540Z,144.20
2022-12-01T06:46:23.597Z,121.90
2022-12-01T06:47:23.517Z,132.30
2022-12-01T06:48:23.499Z,129.10
2022-12-01T06:49:23.487Z,124.70
2022-12-01T06:50:23.486Z,111.00
2022-12-01T06:51:23.468Z,123.30
2022-12-01T06:52:23.444Z,116.80
2022-12-01T06:53:23.445Z,122.10
2022-12-01T06:54:23.428Z,119.00
2022-12-01T06:55:23.429Z,119.30
2022-12-01T06:56:23.397Z,111.60
2022-12-01T06:57:23.384Z,113.70
2022-12-01T06:58:23.368Z,115.30
2022-12-01T06:59:23.356Z,123.80
2022-12-01T07:00:23.355Z,124.30
2022-12-01T07:01:23.398Z,115.90
2022-12-01T07:02:23.350Z,123.40
2022-12-01T07:03:23.307Z,115.10
2022-12-01T07:04:23.290Z,114.40
2022-12-01T07:05:23.297Z,116.30
2022-12-01T07:06:23.261Z,115.90
2022-12-01T07:07:23.277Z,114.30
2022-12-01T07:08:23.237Z,114.70
2022-12-01T07:09:23.236Z,118.00
2022-12-01T07:10:23.227Z,116.20
2022-12-01T07:11:23.198Z,117.10
2022-12-01T07:12:23.177Z,121.50
2022-12-01T07:13:23.169Z,111.60
2022-12-01T07:14:23.151Z,115.00
2022-12-01T07:15:23.181Z,114.10
2022-12-01T07:16:23.231Z,118.20
2022-12-01T07:17:23.118Z,110.60
2022-12-01T07:18:23.094Z,109.10
2022-12-01T07:19:23.091Z,113.80
2022-12-01T07:20:23.089Z,104.90
2022-12-01T07:21:23.058Z,103.90
2022-12-01T07:22:23.762Z,105.80
2022-12-01T07:23:23.041Z,107.40
2022-12-01T07:24:23.019Z,96.20
2022-12-01T07:25:23.031Z,105.60
2022-12-01T07:26:22.989Z,90.80
2022-12-01T07:27:22.979Z,95.10
2022-12-01T07:28:22.969Z,94.10
2022-12-01T07:29:22.950Z,88.70
2022-12-01T07:30:26.961Z,84.00
2022-12-01T07:31:23.987Z,80.40
2022-12-01T07:32:22.920Z,84.50
2022-12-01T07:33:22.904Z,79.90
2022-12-01T07:34:22.880Z,80.10
2022-12-01T07:35:22.890Z,79.00
2022-12-01T07:36:22.863Z,78.20
2022-12-01T07:37:22.876Z,80.20
2022-12-01T07:38:22.851Z,74.70
2022-12-01T07:39:22.849Z,76.10
2022-12-01T07:40:22.820Z,76.10
2022-12-01T07:41:22.790Z,78.40
2022-12-01T07:42:22.793Z,80.10
2022-12-01T07:43:22.799Z,79.70
2022-12-01T07:44:22.752Z,75.10
2022-12-01T07:45:22.763Z,75.10
2022-12-01T07:46:24.166Z,80.70
2022-12-01T07:47:22.721Z,84.90
2022-12-01T07:48:22.721Z,89.60
2022-12-01T07:49:22.691Z,84.50
2022-12-01T07:50:22.698Z,83.40
2022-12-01T07:51:22.661Z,90.80
2022-12-01T07:52:22.641Z,94.30
2022-12-01T07:53:22.631Z,95.40
2022-12-01T07:54:22.612Z,90.10
2022-12-01T07:55:22.641Z,97.20
2022-12-01T07:56:22.581Z,98.50
2022-12-01T07:57:22.594Z,103.20
2022-12-01T07:58:22.562Z,100.20
2022-12-01T07:59:22.605Z,101.00
2022-12-01T08:00:22.623Z,97.80
2022-12-01T08:01:22.649Z,104.40
2022-12-01T08:02:22.659Z,106.80
2022-12-01T08:03:22.497Z,109.20
2022-12-01T08:04:22.492Z,109.70
2022-12-01T08:05:22.484Z,113.60
2022-12-01T08:06:22.454Z,111.10
2022-12-01T08:07:25.063Z,117.60
2022-12-01T08:08:23.422Z,112.70
2022-12-01T08:09:22.424Z,114.90
2022-12-01T08:10:22.413Z,114.00
2022-12-01T08:11:22.386Z,120.00
2022-12-01T08:12:22.372Z,114.30
2022-12-01T08:13:22.363Z,112.50
2022-12-01T08:14:22.353Z,121.60
2022-12-01T08:15:22.416Z,116.90
2022-12-01T08:16:22.334Z,110.60
2022-12-01T08:17:22.315Z,114.40
2022-12-01T08:18:22.293Z,114.60
2022-12-01T08:19:22.284Z,120.70
2022-12-01T08:20:24.049Z,116.80
2022-12-01T08:21:22.259Z,120.30
2022-12-01T08:22:22.233Z,109.10
2022-12-01T08:23:23.117Z,111.30
2022-12-01T08:24:22.245Z,112.70
2022-12-01T08:25:22.203Z,105.70
2022-12-01T08:26:22.204Z,112.10
2022-12-01T08:27:22.182Z,110.70
2022-12-01T08:28:22.163Z,106.60
2022-12-01T08:29:22.144Z,111.00
2022-12-01T08:30:22.134Z,115.30
2022-12-01T08:31:22.176Z,111.10
2022-12-01T08:32:22.105Z,113.00
2022-12-01T08:33:22.103Z,115.00
2022-12-01T08:34:22.074Z,113.60
2022-12-01T08:35:22.065Z,109.10
2022-12-01T08:36:22.133Z,106.70
2022-12-01T08:37:22.033Z,106.40
2022-12-01T08:38:22.023Z,97.80
2022-12-01T08:39:22.004Z,106.90
2022-12-01T08:40:21.994Z,101.40
2022-12-01T08:41:22.005Z,98.20
2022-12-01T08:42:21.985Z,103.70
2022-12-01T08:43:49.720Z,101.80
2022-12-01T08:44:22.957Z,98.40
2022-12-01T08:45:21.927Z,108.30
2022-12-01T08:46:22.015Z,106.90
2022-12-01T08:47:21.904Z,102.70
2022-12-01T08:48:21.884Z,98.10
2022-12-01T08:49:21.875Z,108.00
2022-12-01T08:50:21.854Z,110.40
2022-12-01T08:51:21.869Z,105.90
2022-12-01T08:52:21.836Z,107.50
2022-12-01T08:53:21.814Z,106.80
2022-12-01T08:54:21.804Z,112.20
2022-12-01T08:55:21.800Z,101.60
2022-12-01T08:56:21.786Z,107.80
2022-12-01T08:57:21.775Z,105.50
2022-12-01T08:58:21.763Z,106.10
2022-12-01T08:59:21.748Z,103.90
2022-12-01T09:00:21.728Z,101.30
2022-12-01T09:01:21.853Z,106.20
2022-12-01T09:02:21.864Z,105.10
2022-12-01T09:03:21.790Z,96.20
2022-12-01T09:04:21.666Z,106.00
2022-12-01T09:05:21.669Z,109.70
2022-12-01T09:06:21.656Z,109.90
2022-12-01T09:07:26.310Z,109.60
2022-12-01T09:08:22.626Z,98.70
2022-12-01T09:09:21.635Z,104.00
2022-12-01T09:10:21.587Z,101.90
2022-12-01T09:11:21.609Z,102.70
2022-12-01T09:12:21.565Z,102.20
2022-12-01T09:13:21.558Z,100.60
2022-12-01T09:14:21.545Z,100.40
2022-12-01T09:15:21.527Z,98.80
2022-12-01T09:16:21.613Z,96.00
2022-12-01T09:17:21.495Z,97.00
2022-12-01T09:18:21.487Z,89.10
2022-12-01T09:19:24.808Z,88.80
2022-12-01T09:20:21.482Z,96.20
2022-12-01T09:21:21.469Z,81.80
2022-12-01T09:22:21.447Z,86.40
2022-12-01T09:23:21.417Z,82.50
2022-12-01T09:24:21.411Z,86.00
2022-12-01T09:25:21.387Z,87.10
2022-12-01T09:26:21.398Z,85.00
2022-12-01T09:27:21.377Z,84.00
2022-12-01T09:28:21.352Z,78.50
2022-12-01T09:29:21.337Z,83.00
2022-12-01T09:30:21.387Z,82.50
2022-12-01T09:31:21.362Z,84.50
2022-12-01T09:32:21.297Z,86.90
2022-12-01T09:33:21.278Z,87.00
2022-12-01T09:34:21.267Z,80.80
2022-12-01T09:35:23.577Z,84.70
2022-12-01T09:36:28.299Z,86.40
2022-12-01T09:37:21.225Z,84.00
2022-12-01T09:38:21.219Z,84.50
2022-12-01T09:39:21.198Z,87.00
2022-12-01T09:40:21.232Z,93.70
2022-12-01T09:41:21.189Z,91.90
2022-12-01T09:42:21.174Z,88.50
2022-12-01T09:43:21.163Z,91.60
2022-12-01T09:44:21.147Z,92.90
2022-12-01T09:45:21.119Z,91.40
2022-12-01T09:46:21.166Z,90.50
2022-12-01T09:47:21.089Z,91.20
2022-12-01T09:48:21.079Z,94.10
2022-12-01T09:49:21.067Z,95.50
2022-12-01T09:50:21.057Z,98.00
2022-12-01T09:51:21.056Z,88.70
2022-12-01T09:52:21.027Z,88.80
2022-12-01T09:53:21.009Z,91.80
2022-12-01T09:54:21.016Z,90.10
2022-12-01T09:55:20.981Z,91.20
2022-12-01T09:56:20.990Z,91.90
2022-12-01T09:57:20.960Z,97.40
2022-12-01T09:58:20.948Z,93.00
2022-12-01T09:59:20.930Z,92.00
2022-12-01T10:00:20.919Z,101.60
2022-12-01T10:01:26.933Z,95.80
2022-12-01T10:02:21.917Z,96.60
2022-12-01T10:03:20.882Z,90.00
2022-12-01T10:04:20.878Z,88.10
2022-12-01T10:05:20.884Z,90.60
2022-12-01T10:06:28.975Z,92.80
2022-12-01T10:07:21.878Z,93.20
2022-12-01T10:08:26.700Z,92.60
2022-12-01T10:09:21.798Z,92.10
2022-12-01T10:10:20.792Z,97.30
2022-12-01T10:11:20.873Z,93.80
2022-12-01T10:12:20.760Z,92.70
2022-12-01T10:13:20.742Z,94.00
2022-12-01T10:14:20.931Z,88.70
2022-12-01T10:15:20.711Z,94.80
2022-12-01T10:16:20.761Z,95.50
2022-12-01T10:17:20.680Z,83.50
2022-12-01T10:18:20.679Z,94.40
2022-12-01T10:19:20.664Z,89.60
2022-12-01T10:20:20.661Z,90.70
2022-12-01T10:21:20.660Z,88.40
2022-12-01T10:22:20.621Z,88.60
2022-12-01T10:23:20.604Z,86.90
2022-12-01T10:24:20.612Z,83.80
2022-12-01T10:25:20.585Z,90.70
2022-12-01T10:26:20.580Z,82.70
2022-12-01T10:27:20.582Z,76.90
2022-12-01T10:28:20.541Z,75.70
2022-12-01T10:29:20.522Z,80.60
2022-12-01T10:30:20.511Z,83.20
2022-12-01T10:31:20.555Z,80.20
2022-12-01T10:32:20.501Z,86.20
2022-12-01T10:33:20.472Z,82.10
2022-12-01T10:34:20.470Z,80.40
2022-12-01T10:35:20.452Z,80.50
2022-12-01T10:36:20.432Z,84.60
2022-12-01T10:37:20.491Z,80.40
2022-12-01T10:38:20.412Z,76.40
2022-12-01T10:39:20.390Z,82.40
2022-12-01T10:40:20.382Z,81.40
2022-12-01T10:41:20.362Z,77.70
2022-12-01T10:42:20.372Z,73.60
2022-12-01T10:43:20.352Z,76.30
2022-12-01T10:44:20.345Z,77.30
2022-12-01T10:45:20.311Z,79.30
2022-12-01T10:46:20.320Z,75.30
2022-12-01T10:47:20.302Z,79.10
2022-12-01T10:48:20.272Z,81.40
2022-12-01T10:49:20.262Z,78.50
2022-12-01T10:50:20.243Z,77.00
2022-12-01T10:51:20.236Z,83.00
2022-12-01T10:52:20.284Z,75.20
2022-12-01T10:53:20.204Z,80.30
2022-12-01T10:54:20.194Z,79.80
2022-12-01T10:55:20.173Z,80.10
2022-12-01T10:56:20.218Z,77.80
2022-12-01T10:57:20.164Z,80.40
2022-12-01T10:58:20.142Z,80.20
2022-12-01T10:59:20.124Z,76.80
2022-12-01T11:00:43.261Z,75.10
2022-12-01T11:01:21.225Z,73.50
2022-12-01T11:02:20.344Z,76.80
2022-12-01T11:03:22.064Z,80.30
2022-12-01T11:04:20.053Z,75.20
2022-12-01T11:05:20.033Z,75.80
2022-12-01T11:06:20.033Z,79.50
2022-12-01T11:07:20.082Z,77.10
2022-12-01T11:08:20.005Z,82.50
2022-12-01T11:09:25.795Z,83.30
2022-12-01T11:10:21.030Z,75.80
2022-12-01T11:11:19.954Z,78.80
2022-12-01T11:12:19.966Z,79.10
2022-12-01T11:13:19.933Z,76.20
2022-12-01T11:14:19.924Z,87.20
2022-12-01T11:15:19.905Z,79.90
2022-12-01T11:16:19.963Z,79.60
2022-12-01T11:17:19.894Z,74.70
2022-12-01T11:18:19.865Z,80.40
2022-12-01T11:19:25.361Z,76.30
2022-12-01T11:20:20.926Z,81.20
2022-12-01T11:21:19.831Z,79.60
2022-12-01T11:22:19.836Z,83.00
2022-12-01T11:23:19.795Z,89.50
2022-12-01T11:24:19.788Z,82.30
2022-12-01T11:25:19.784Z,87.20
2022-12-01T11:26:19.765Z,78.40
2022-12-01T11:27:19.771Z,86.50
2022-12-01T11:28:19.735Z,85.10
2022-12-01T11:29:19.728Z,85.00
2022-12-01T11:30:19.771Z,88.40
2022-12-01T11:31:19.727Z,90.20
2022-12-01T11:32:19.749Z,91.50
2022-12-01T11:33:19.673Z,84.40
2022-12-01T11:34:19.660Z,82.90
2022-12-01T11:35:19.637Z,85.80
2022-12-01T11:36:19.627Z,75.70
2022-12-01T11:37:19.627Z,78.00
2022-12-01T11:38:34.875Z,77.00
2022-12-01T11:39:20.585Z,84.00
2022-12-01T11:40:19.619Z,77.50
2022-12-01T11:41:19.557Z,73.50
2022-12-01T11:42:19.568Z,72.00
2022-12-01T11:43:19.722Z,63.50
2022-12-01T11:45:20.496Z,60.50
2022-12-01T11:46:19.560Z,65.60
2022-12-01T11:47:24.158Z,63.20
2022-12-01T11:48:20.467Z,59.50
2022-12-01T11:49:19.449Z,59.80
2022-12-01T11:50:19.482Z,58.00
2022-12-01T11:51:19.421Z,61.30
2022-12-01T11:52:19.437Z,58.20
2022-12-01T11:53:19.395Z,55.20
2022-12-01T11:54:19.388Z,60.80
2022-12-01T11:55:19.378Z,62.70
2022-12-01T11:56:19.363Z,61.40
2022-12-01T11:57:33.837Z,58.80
2022-12-01T11:58:20.373Z,57.10
2022-12-01T11:59:19.316Z,54.60
2022-12-01T12:00:19.378Z,60.00
2022-12-01T12:01:22.143Z,58.70
2022-12-01T12:02:19.327Z,58.30
2022-12-01T12:03:19.284Z,59.80
2022-12-01T12:04:19.268Z,59.30
2022-12-01T12:05:19.230Z,59.90
2022-12-01T12:06:39.432Z,59.00
2022-12-01T12:07:20.264Z,57.00
2022-12-01T12:08:19.198Z,59.90
2022-12-01T12:09:19.179Z,57.30
2022-12-01T12:10:19.179Z,57.80
2022-12-01T12:11:19.149Z,59.10
2022-12-01T12:12:19.139Z,57.60
2022-12-01T12:13:19.140Z,50.40
2022-12-01T12:14:19.170Z,53.50
2022-12-01T12:15:19.099Z,52.10
2022-12-01T12:16:19.086Z,54.70
2022-12-01T12:17:19.115Z,55.60
2022-12-01T12:18:19.082Z,53.60
2022-12-01T12:19:22.448Z,53.60
2022-12-01T12:20:20.117Z,51.00
2022-12-01T12:21:19.033Z,53.20
2022-12-01T12:22:19.010Z,54.20
2022-12-01T12:23:19.002Z,52.90
2022-12-01T12:24:18.988Z,53.00
2022-12-01T12:25:18.959Z,54.90
2022-12-01T12:26:18.953Z,58.70
2022-12-01T12:27:18.940Z,55.80
2022-12-01T12:28:18.953Z,56.60
2022-12-01T12:29:18.911Z,54.70
2022-12-01T12:30:18.906Z,56.80
2022-12-01T12:31:18.941Z,53.60
2022-12-01T12:32:18.870Z,57.30
2022-12-01T12:33:18.873Z,55.90
2022-12-01T12:34:18.845Z,60.20
2022-12-01T12:35:18.832Z,58.70
2022-12-01T12:36:18.827Z,60.80
2022-12-01T12:37:18.815Z,58.80
2022-12-01T12:38:18.815Z,56.00
2022-12-01T12:39:18.780Z,60.40
2022-12-01T12:40:18.762Z,58.30
2022-12-01T12:41:18.749Z,60.00
2022-12-01T12:42:18.739Z,57.90
2022-12-01T12:43:18.757Z,58.40